createdAt,value
2023-03-24T00:01:04.980Z,8.18
2023-03-24T00:02:09.076Z,5.28
2023-03-24T00:03:13.299Z,6.90
2023-03-24T00:04:17.895Z,7.13
2023-03-24T00:05:23.997Z,10.70
2023-03-24T00:06:28.099Z,6.10
2023-03-24T00:07:35.383Z,8.15
2023-03-24T00:08:39.111Z,7.35
2023-03-24T00:09:43.893Z,6.13
2023-03-24T00:10:49.213Z,5.25
2023-03-24T00:11:52.763Z,9.73
2023-03-24T00:12:57.017Z,6.70
2023-03-24T00:14:01.287Z,5.70
2023-03-24T00:15:08.417Z,9.10
2023-03-24T00:16:30.899Z,7.53
2023-03-24T00:17:53.396Z,5.63
2023-03-24T00:19:02.832Z,7.72
2023-03-24T00:20:15.568Z,15.23
2023-03-24T00:21:22.530Z,8.40
2023-03-24T00:22:29.049Z,8.40
2023-03-24T00:23:35.596Z,12.02
2023-03-24T00:24:39.163Z,9.20
2023-03-24T00:25:43.196Z,10.48
2023-03-24T00:26:47.836Z,12.93
2023-03-24T00:27:52.459Z,7.90
2023-03-24T00:28:56.328Z,7.97
2023-03-24T00:30:00.672Z,9.48
2023-03-24T00:31:05.877Z,15.23
2023-03-24T00:32:09.943Z,6.00
2023-03-24T00:33:14.029Z,15.15
2023-03-24T00:34:18.859Z,7.82
2023-03-24T00:35:22.670Z,11.48
2023-03-24T00:36:27.471Z,13.63
2023-03-24T00:37:31.530Z,18.73
2023-03-24T00:38:36.153Z,14.00
2023-03-24T00:39:40.514Z,8.05
2023-03-24T00:40:49.557Z,22.08
2023-03-24T00:41:53.416Z,21.05
2023-03-24T00:42:57.121Z,12.82
2023-03-24T00:44:01.581Z,17.38
2023-03-24T00:45:06.712Z,14.20
2023-03-24T00:46:12.363Z,14.27
2023-03-24T00:47:18.997Z,15.48
2023-03-24T00:48:24.909Z,11.95
2023-03-24T00:49:48.725Z,19.33
2023-03-24T00:50:53.175Z,16.73
2023-03-24T00:51:58.923Z,20.95
2023-03-24T00:53:03.314Z,16.38
2023-03-24T00:54:07.890Z,18.73
2023-03-24T00:55:16.432Z,20.05
2023-03-24T00:56:20.868Z,21.70
2023-03-24T00:57:26.936Z,19.20
2023-03-24T00:58:35.374Z,26.55
2023-03-24T00:59:43.483Z,21.00
2023-03-24T01:00:48.564Z,14.70
2023-03-24T01:01:52.235Z,20.83
2023-03-24T01:02:58.251Z,14.68
2023-03-24T01:04:03.401Z,11.38
2023-03-24T01:05:07.421Z,14.90
2023-03-24T01:06:12.515Z,26.50
2023-03-24T01:07:18.831Z,28.55
2023-03-24T01:08:22.440Z,25.40
2023-03-24T01:09:26.153Z,15.18
2023-03-24T01:10:31.072Z,29.63
2023-03-24T01:11:40.723Z,24.25
2023-03-24T01:12:44.889Z,17.15
2023-03-24T01:13:49.290Z,20.88
2023-03-24T01:14:53.812Z,13.23
2023-03-24T01:15:58.181Z,17.95
2023-03-24T01:17:01.786Z,17.58
2023-03-24T01:18:05.592Z,19.42
2023-03-24T01:19:10.277Z,17.23
2023-03-24T01:20:14.377Z,24.05
2023-03-24T01:21:19.338Z,21.95
2023-03-24T01:22:23.668Z,15.60
2023-03-24T01:23:27.445Z,18.35
2023-03-24T01:24:31.824Z,15.27
2023-03-24T01:25:39.886Z,13.57
2023-03-24T01:26:43.882Z,22.05
2023-03-24T01:27:48.270Z,19.40
2023-03-24T01:28:52.865Z,16.85
2023-03-24T01:30:00.794Z,18.98
2023-03-24T01:31:04.385Z,20.42
2023-03-24T01:32:08.566Z,17.83
2023-03-24T01:33:12.749Z,20.90
2023-03-24T01:34:16.830Z,23.65
2023-03-24T01:35:21.487Z,25.58
2023-03-24T01:36:25.655Z,24.23
2023-03-24T01:37:29.382Z,17.63
2023-03-24T01:38:32.936Z,16.90
2023-03-24T01:39:37.178Z,21.20
2023-03-24T01:40:43.400Z,16.85
2023-03-24T01:41:47.802Z,44.47
2023-03-24T01:42:51.883Z,45.42
2023-03-24T01:43:55.824Z,47.88
2023-03-24T01:45:02.420Z,23.13
2023-03-24T01:46:18.159Z,30.23
2023-03-24T01:47:22.012Z,42.13
2023-03-24T01:48:27.756Z,33.42
2023-03-24T01:49:36.759Z,31.45
2023-03-24T01:50:41.024Z,31.48
2023-03-24T01:51:49.724Z,27.60
2023-03-24T01:52:53.878Z,29.52
2023-03-24T01:54:19.874Z,24.50
2023-03-24T01:55:25.585Z,37.47
2023-03-24T01:56:33.644Z,45.60
2023-03-24T01:57:47.067Z,54.92
2023-03-24T01:58:59.841Z,48.00
2023-03-24T02:00:16.858Z,40.70
2023-03-24T02:01:40.419Z,55.58
2023-03-24T02:03:23.592Z,27.17
2023-03-24T02:04:35.978Z,30.98
2023-03-24T02:05:42.289Z,54.70
2023-03-24T02:06:45.997Z,60.22
2023-03-24T02:08:04.740Z,42.95
2023-03-24T02:09:08.684Z,41.78
2023-03-24T02:10:15.251Z,45.95
2023-03-24T02:11:19.677Z,57.58
2023-03-24T02:12:28.455Z,51.47
2023-03-24T02:13:33.704Z,53.35
2023-03-24T02:14:38.016Z,50.63
2023-03-24T02:16:41.572Z,37.75
2023-03-24T02:17:55.219Z,42.95
2023-03-24T02:19:01.505Z,69.90
2023-03-24T02:20:16.096Z,69.97
2023-03-24T02:21:57.270Z,58.08
2023-03-24T02:24:43.036Z,43.03
2023-03-24T02:26:04.989Z,65.32
2023-03-24T02:27:32.639Z,65.88
2023-03-24T02:28:45.444Z,76.60
2023-03-24T02:30:20.023Z,59.10
2023-03-24T02:31:44.840Z,64.55
2023-03-24T02:33:25.481Z,44.88
2023-03-24T02:34:43.754Z,48.88
2023-03-24T02:35:59.238Z,56.85
2023-03-24T02:37:28.178Z,51.20
2023-03-24T02:38:55.989Z,41.42
2023-03-24T02:40:23.143Z,56.33
2023-03-24T02:41:42.433Z,67.03
2023-03-24T02:42:53.876Z,51.95
2023-03-24T02:44:08.520Z,61.47
2023-03-24T02:45:24.568Z,64.85
2023-03-24T02:46:48.063Z,48.30
2023-03-24T02:48:11.386Z,37.10
2023-03-24T02:49:18.194Z,31.33
2023-03-24T02:50:48.725Z,27.90
2023-03-24T02:52:07.649Z,30.38
2023-03-24T02:53:19.732Z,38.63
2023-03-24T02:54:43.821Z,40.15
2023-03-24T02:55:56.304Z,35.50
2023-03-24T02:57:09.795Z,34.78
2023-03-24T02:58:42.416Z,33.13
2023-03-24T03:00:01.474Z,26.70
2023-03-24T03:01:54.829Z,29.52
2023-03-24T03:03:35.019Z,26.02
2023-03-24T03:04:42.133Z,19.90
2023-03-24T03:05:59.410Z,22.60
2023-03-24T03:07:10.547Z,33.67
2023-03-24T03:08:15.501Z,82.43
2023-03-24T03:09:19.909Z,53.17
2023-03-24T03:10:25.656Z,41.17
2023-03-24T03:11:29.486Z,20.30
2023-03-24T03:12:35.265Z,28.90
2023-03-24T03:13:41.075Z,19.48
2023-03-24T03:14:53.933Z,31.58
2023-03-24T03:15:59.099Z,27.27
2023-03-24T03:17:08.951Z,27.75
2023-03-24T03:18:30.261Z,32.67
2023-03-24T03:19:43.705Z,23.13
2023-03-24T03:20:53.605Z,25.05
2023-03-24T03:21:57.587Z,30.70
2023-03-24T03:23:02.853Z,29.35
2023-03-24T03:24:11.942Z,31.70
2023-03-24T03:25:16.549Z,42.63
2023-03-24T03:26:23.089Z,33.17
2023-03-24T03:27:40.247Z,24.48
2023-03-24T03:28:50.929Z,31.33
2023-03-24T03:29:57.891Z,26.25
2023-03-24T03:31:03.209Z,24.98
2023-03-24T03:32:11.386Z,31.60
2023-03-24T03:33:26.947Z,27.90
2023-03-24T03:34:55.467Z,24.70
2023-03-24T03:36:03.395Z,21.20
2023-03-24T03:37:19.393Z,32.20
2023-03-24T03:38:33.418Z,41.40
2023-03-24T03:39:41.503Z,31.20
2023-03-24T03:41:13.851Z,28.10
2023-03-24T03:42:17.491Z,33.83
2023-03-24T03:43:21.732Z,28.90
2023-03-24T03:44:25.408Z,29.52
2023-03-24T03:45:29.033Z,30.88
2023-03-24T03:46:33.160Z,24.90
2023-03-24T03:47:37.045Z,24.98
2023-03-24T03:48:41.383Z,29.77
2023-03-24T03:49:45.533Z,19.25
2023-03-24T03:50:53.284Z,21.35
2023-03-24T03:52:01.127Z,26.02
2023-03-24T03:53:05.366Z,25.65
2023-03-24T03:54:11.787Z,21.88
2023-03-24T03:55:16.284Z,31.52
2023-03-24T03:56:23.348Z,25.38
2023-03-24T03:57:52.919Z,41.80
2023-03-24T03:59:11.581Z,18.02
2023-03-24T04:00:17.802Z,22.38
2023-03-24T04:01:37.824Z,48.83
2023-03-24T04:03:45.337Z,28.67
2023-03-24T04:05:16.665Z,29.67
2023-03-24T04:06:51.102Z,38.33
2023-03-24T04:08:13.269Z,55.65
2023-03-24T04:09:41.627Z,47.08
2023-03-24T04:11:09.281Z,50.92
2023-03-24T04:12:33.000Z,31.30
2023-03-24T04:13:58.209Z,28.35
2023-03-24T04:15:24.002Z,27.45
2023-03-24T04:16:51.967Z,34.60
2023-03-24T04:18:21.877Z,38.47
2023-03-24T04:19:39.768Z,37.60
2023-03-24T04:21:03.256Z,35.47
2023-03-24T04:22:25.108Z,47.50
2023-03-24T04:23:51.120Z,51.35
2023-03-24T04:25:00.672Z,66.00
2023-03-24T04:26:27.284Z,66.80
2023-03-24T04:28:02.140Z,61.10
2023-03-24T04:29:18.615Z,46.58
2023-03-24T04:30:31.617Z,37.83
2023-03-24T04:31:53.986Z,46.65
2023-03-24T04:33:05.209Z,28.65
2023-03-24T04:34:31.819Z,37.33
2023-03-24T04:35:45.704Z,49.28
2023-03-24T04:37:07.348Z,32.20
2023-03-24T04:38:34.332Z,37.42
2023-03-24T04:40:01.440Z,41.55
2023-03-24T04:41:06.496Z,41.53
2023-03-24T04:42:16.196Z,54.88
2023-03-24T04:43:21.609Z,67.72
2023-03-24T04:44:25.872Z,45.17
2023-03-24T04:45:51.221Z,41.78
2023-03-24T04:47:14.938Z,47.35
2023-03-24T04:48:32.214Z,32.17
2023-03-24T04:49:48.348Z,31.50
2023-03-24T04:50:56.367Z,42.67
2023-03-24T04:52:01.221Z,50.78
2023-03-24T04:53:09.668Z,33.85
2023-03-24T04:54:14.882Z,23.63
2023-03-24T04:55:30.659Z,25.50
2023-03-24T04:56:56.845Z,34.20
2023-03-24T04:58:10.382Z,30.73
2023-03-24T04:59:14.685Z,59.58
2023-03-24T05:00:20.055Z,43.95
2023-03-24T05:01:24.102Z,33.80
2023-03-24T05:02:48.046Z,40.75
2023-03-24T05:04:00.187Z,43.00
2023-03-24T05:05:04.586Z,54.45
2023-03-24T05:06:15.737Z,49.78
2023-03-24T05:07:20.067Z,71.90
2023-03-24T05:08:27.190Z,74.22
2023-03-24T05:09:32.676Z,60.63
2023-03-24T05:10:38.328Z,48.33
2023-03-24T05:11:44.049Z,33.60
2023-03-24T05:12:47.697Z,44.35
2023-03-24T05:14:05.804Z,36.05
2023-03-24T05:15:10.186Z,27.45
2023-03-24T05:16:15.071Z,27.02
2023-03-24T05:17:25.180Z,28.02
2023-03-24T05:18:28.982Z,55.95
2023-03-24T05:19:33.768Z,46.58
2023-03-24T05:20:37.932Z,44.85
2023-03-24T05:21:50.536Z,29.90
2023-03-24T05:22:54.360Z,30.13
2023-03-24T05:23:58.500Z,25.15
2023-03-24T05:25:02.785Z,32.60
2023-03-24T05:26:06.761Z,28.13
2023-03-24T05:27:22.207Z,26.05
2023-03-24T05:28:26.026Z,41.42
2023-03-24T05:29:31.637Z,34.38
2023-03-24T05:30:36.433Z,29.98
2023-03-24T05:31:51.545Z,32.88
2023-03-24T05:32:58.319Z,25.13
2023-03-24T05:34:02.115Z,26.80
2023-03-24T05:35:11.683Z,23.08
2023-03-24T05:36:16.081Z,39.80
2023-03-24T05:37:23.606Z,27.33
2023-03-24T05:38:28.690Z,33.10
2023-03-24T05:39:33.143Z,32.35
2023-03-24T05:41:01.248Z,33.85
2023-03-24T05:42:11.788Z,22.33
2023-03-24T05:43:15.994Z,28.05
2023-03-24T05:44:27.060Z,28.02
2023-03-24T05:45:40.927Z,41.80
2023-03-24T05:46:46.635Z,45.03
2023-03-24T05:47:50.575Z,38.58
2023-03-24T05:49:00.136Z,24.83
2023-03-24T05:50:09.598Z,34.28
2023-03-24T05:51:13.749Z,39.17
2023-03-24T05:52:18.632Z,47.45
2023-03-24T05:53:24.498Z,38.17
2023-03-24T05:54:54.570Z,47.53
2023-03-24T05:56:02.498Z,36.03
2023-03-24T05:57:26.431Z,39.25
2023-03-24T05:59:52.781Z,35.13
2023-03-24T06:01:19.277Z,49.58
2023-03-24T06:02:27.317Z,41.28
2023-03-24T06:03:41.786Z,64.85
2023-03-24T06:04:49.646Z,69.65
2023-03-24T06:05:56.257Z,53.05
2023-03-24T06:07:00.174Z,26.58
2023-03-24T06:08:10.535Z,32.45
2023-03-24T06:09:16.212Z,32.67
2023-03-24T06:10:20.051Z,41.50
2023-03-24T06:11:27.797Z,78.10
2023-03-24T06:12:39.409Z,69.43
2023-03-24T06:13:43.397Z,42.13
2023-03-24T06:14:47.462Z,40.92
2023-03-24T06:15:51.364Z,47.25
2023-03-24T06:17:15.491Z,34.78
2023-03-24T06:18:22.632Z,37.10
2023-03-24T06:19:27.809Z,27.88
2023-03-24T06:20:51.622Z,37.97
2023-03-24T06:22:04.664Z,39.58
2023-03-24T06:23:13.176Z,24.75
2023-03-24T06:24:51.174Z,33.50
2023-03-24T06:25:56.669Z,42.63
2023-03-24T06:27:03.259Z,38.25
2023-03-24T06:28:13.190Z,33.58
2023-03-24T06:29:20.468Z,29.95
2023-03-24T06:30:24.542Z,29.80
2023-03-24T06:31:28.429Z,28.88
2023-03-24T06:32:32.220Z,48.92
2023-03-24T06:33:36.400Z,36.38
2023-03-24T06:34:41.367Z,56.28
2023-03-24T06:35:57.494Z,53.05
2023-03-24T06:37:01.907Z,43.05
2023-03-24T06:38:05.575Z,42.17
2023-03-24T06:39:09.739Z,34.88
2023-03-24T06:40:16.793Z,29.48
2023-03-24T06:41:29.007Z,50.55
2023-03-24T06:42:36.532Z,42.50
2023-03-24T06:43:40.450Z,43.85
2023-03-24T06:44:44.607Z,59.92
2023-03-24T06:45:49.146Z,46.35
2023-03-24T06:47:00.389Z,46.17
2023-03-24T06:48:04.248Z,34.00
2023-03-24T06:49:08.440Z,55.03
2023-03-24T06:50:13.561Z,54.55
2023-03-24T06:51:17.795Z,51.40
2023-03-24T06:52:23.071Z,58.50
2023-03-24T06:53:27.035Z,43.90
2023-03-24T06:54:31.281Z,46.72
2023-03-24T06:55:35.981Z,44.63
2023-03-24T06:56:40.897Z,56.30
2023-03-24T06:57:45.731Z,60.42
2023-03-24T06:59:18.420Z,80.03
2023-03-24T07:00:21.984Z,75.78
2023-03-24T07:01:45.755Z,51.13
2023-03-24T07:02:57.205Z,40.58
2023-03-24T07:04:00.901Z,55.63
2023-03-24T07:05:23.299Z,51.75
2023-03-24T07:06:27.328Z,79.20
2023-03-24T07:09:03.411Z,60.38
2023-03-24T07:10:08.337Z,48.97
2023-03-24T07:11:12.754Z,62.40
2023-03-24T07:12:24.491Z,79.55
2023-03-24T07:13:28.581Z,49.80
2023-03-24T07:14:39.702Z,44.40
2023-03-24T07:15:44.641Z,50.03
2023-03-24T07:16:49.828Z,44.38
2023-03-24T07:18:12.459Z,47.13
2023-03-24T07:19:23.189Z,36.83
2023-03-24T07:20:45.365Z,43.45
2023-03-24T07:21:51.828Z,44.90
2023-03-24T07:23:04.529Z,41.17
2023-03-24T07:24:26.605Z,57.42
2023-03-24T07:25:42.094Z,39.95
2023-03-24T07:26:58.144Z,49.45
2023-03-24T07:28:02.322Z,63.28
2023-03-24T07:29:06.502Z,60.50
2023-03-24T07:30:39.416Z,74.25
2023-03-24T07:31:45.728Z,59.38
2023-03-24T07:32:51.329Z,52.55
2023-03-24T07:33:55.756Z,39.58
2023-03-24T07:34:59.932Z,38.72
2023-03-24T07:36:03.715Z,54.78
2023-03-24T07:37:07.684Z,46.60
2023-03-24T07:38:11.717Z,49.92
2023-03-24T07:39:15.571Z,32.22
2023-03-24T07:40:19.859Z,66.57
2023-03-24T07:41:24.980Z,67.05
2023-03-24T07:42:33.764Z,69.13
2023-03-24T07:43:55.731Z,57.05
2023-03-24T07:45:10.127Z,55.75
2023-03-24T07:46:14.200Z,42.83
2023-03-24T07:47:18.289Z,58.00
2023-03-24T07:48:24.263Z,56.67
2023-03-24T07:49:28.501Z,34.92
2023-03-24T07:50:39.444Z,33.55
2023-03-24T07:52:00.202Z,68.55
2023-03-24T07:53:12.563Z,54.33
2023-03-24T07:54:16.294Z,56.60
2023-03-24T07:55:24.500Z,52.58
2023-03-24T07:56:33.506Z,34.33
2023-03-24T07:57:39.034Z,43.17
2023-03-24T07:58:44.550Z,39.00
2023-03-24T08:00:15.372Z,52.28
2023-03-24T08:01:19.370Z,48.20
2023-03-24T08:02:25.941Z,31.80
2023-03-24T08:03:50.175Z,32.92
2023-03-24T08:04:57.342Z,36.38
2023-03-24T08:06:27.002Z,24.83
2023-03-24T08:07:33.001Z,29.85
2023-03-24T08:08:37.473Z,26.17
2023-03-24T08:09:41.607Z,24.30
2023-03-24T08:10:47.607Z,24.38
2023-03-24T08:11:51.895Z,23.45
2023-03-24T08:12:56.072Z,20.08
2023-03-24T08:14:00.107Z,11.82
2023-03-24T08:15:05.051Z,18.95
2023-03-24T08:16:09.691Z,11.25
2023-03-24T08:17:13.375Z,4.85
2023-03-24T08:18:17.448Z,2.42
2023-03-24T08:19:21.610Z,7.88
2023-03-24T08:20:27.600Z,2.28
2023-03-24T08:21:31.681Z,3.15
2023-03-24T08:22:35.763Z,0.77
2023-03-24T08:23:39.986Z,1.08
2023-03-24T08:24:44.052Z,1.48
2023-03-24T08:25:48.321Z,1.25
2023-03-24T08:26:51.983Z,0.40
2023-03-24T08:27:55.587Z,1.13
2023-03-24T08:28:59.549Z,0.50
2023-03-24T08:30:03.704Z,2.03
2023-03-24T08:31:07.839Z,0.88
2023-03-24T08:32:11.889Z,0.77
2023-03-24T08:33:16.302Z,0.55
2023-03-24T08:34:20.775Z,1.83
2023-03-24T08:35:32.875Z,1.70
2023-03-24T08:36:36.896Z,0.22
2023-03-24T08:37:40.969Z,0.77
2023-03-24T08:38:44.804Z,0.70
2023-03-24T08:39:48.750Z,0.98
2023-03-24T08:40:53.309Z,1.65
2023-03-24T08:41:57.632Z,1.65
2023-03-24T08:43:04.162Z,0.50
2023-03-24T08:44:08.311Z,2.85
2023-03-24T08:45:12.984Z,0.63
2023-03-24T08:46:17.154Z,0.65
2023-03-24T08:47:21.197Z,1.05
2023-03-24T08:48:24.976Z,0.50
2023-03-24T08:49:29.023Z,1.95
2023-03-24T08:50:35.742Z,1.52
2023-03-24T08:51:39.429Z,0.80
2023-03-24T08:52:43.633Z,3.72
2023-03-24T08:53:47.263Z,1.65
2023-03-24T08:54:51.718Z,3.03
2023-03-24T08:55:55.403Z,0.98
2023-03-24T08:56:58.988Z,1.40
2023-03-24T08:58:02.774Z,2.15
2023-03-24T08:59:07.369Z,1.80
2023-03-24T09:00:15.936Z,2.20
2023-03-24T09:01:19.693Z,1.00
2023-03-24T09:02:23.701Z,2.78
2023-03-24T09:03:27.709Z,5.43
2023-03-24T09:04:31.497Z,3.42
2023-03-24T09:05:44.508Z,0.90
2023-03-24T09:07:02.942Z,6.43
2023-03-24T09:08:08.615Z,2.10
2023-03-24T09:09:12.699Z,5.35
2023-03-24T09:10:16.800Z,9.68
2023-03-24T09:11:21.625Z,9.10
2023-03-24T09:12:25.549Z,4.07
2023-03-24T09:13:29.208Z,6.07
2023-03-24T09:14:33.590Z,7.75
2023-03-24T09:15:37.711Z,4.93
2023-03-24T09:16:42.516Z,5.07
2023-03-24T09:17:46.406Z,4.15
2023-03-24T09:18:50.534Z,5.53
2023-03-24T09:19:54.579Z,7.15
2023-03-24T09:20:58.712Z,6.97
2023-03-24T09:22:02.411Z,6.80
2023-03-24T09:23:06.600Z,4.32
2023-03-24T09:24:10.327Z,6.68
2023-03-24T09:25:16.120Z,5.22
2023-03-24T09:26:19.695Z,3.92
2023-03-24T09:27:24.486Z,6.15
2023-03-24T09:28:28.432Z,7.68
2023-03-24T09:29:32.450Z,5.95
2023-03-24T09:30:36.576Z,7.20
2023-03-24T09:31:40.309Z,7.72
2023-03-24T09:32:44.740Z,7.38
2023-03-24T09:33:48.834Z,7.38
2023-03-24T09:34:52.938Z,6.07
2023-03-24T09:36:00.769Z,8.30
2023-03-24T09:37:05.102Z,8.75
2023-03-24T09:38:08.826Z,6.97
2023-03-24T09:39:12.968Z,5.85
2023-03-24T09:40:26.566Z,6.55
2023-03-24T09:41:33.137Z,6.13
2023-03-24T09:42:40.328Z,5.22
2023-03-24T09:43:50.995Z,10.25
2023-03-24T09:45:01.040Z,7.65
2023-03-24T09:46:06.430Z,1.55
2023-03-24T09:47:32.898Z,3.67
2023-03-24T09:48:40.592Z,10.73
2023-03-24T09:49:44.361Z,2.75
2023-03-24T09:50:52.678Z,6.38
2023-03-24T09:52:06.183Z,3.55
2023-03-24T09:53:44.235Z,4.10
2023-03-24T09:54:52.414Z,4.30
2023-03-24T09:55:56.492Z,5.68
2023-03-24T09:57:00.312Z,5.60
2023-03-24T09:58:09.835Z,7.15
2023-03-24T09:59:15.148Z,8.10
2023-03-24T10:00:21.132Z,5.65
2023-03-24T10:01:24.904Z,4.18
2023-03-24T10:02:29.857Z,7.65
2023-03-24T10:03:33.702Z,6.78
2023-03-24T10:04:38.253Z,8.90
2023-03-24T10:05:49.550Z,6.53
2023-03-24T10:07:08.592Z,5.63
2023-03-24T10:08:24.149Z,7.78
2023-03-24T10:09:29.197Z,4.72
2023-03-24T10:10:47.241Z,10.45
2023-03-24T10:12:08.998Z,12.73
2023-03-24T10:13:26.756Z,6.32
2023-03-24T10:14:49.412Z,10.38
2023-03-24T10:15:56.728Z,6.30
2023-03-24T10:17:19.548Z,10.10
2023-03-24T10:18:40.889Z,14.60
2023-03-24T10:20:19.452Z,9.65
2023-03-24T10:21:26.032Z,9.95
2023-03-24T10:22:38.717Z,8.77
2023-03-24T10:24:16.512Z,11.85
2023-03-24T10:25:35.314Z,9.75
2023-03-24T10:26:44.540Z,7.75
2023-03-24T10:27:50.606Z,8.60
2023-03-24T10:29:24.785Z,8.73
2023-03-24T10:30:48.234Z,6.97
2023-03-24T10:32:02.548Z,10.82
2023-03-24T10:33:06.385Z,5.60
2023-03-24T10:34:13.287Z,6.63
2023-03-24T10:35:23.246Z,6.00
2023-03-24T10:36:26.952Z,11.20
2023-03-24T10:37:30.976Z,9.20
2023-03-24T10:38:34.842Z,5.97
2023-03-24T10:39:44.658Z,7.82
2023-03-24T10:41:52.987Z,3.72
2023-03-24T10:43:07.250Z,13.10
2023-03-24T10:44:13.655Z,6.45
2023-03-24T10:45:25.502Z,6.68
2023-03-24T10:46:31.012Z,9.07
2023-03-24T10:47:34.661Z,7.40
2023-03-24T10:48:46.569Z,6.38
2023-03-24T10:50:14.297Z,7.85
2023-03-24T10:51:23.063Z,5.05
2023-03-24T10:52:27.047Z,11.23
2023-03-24T10:53:30.707Z,8.73
2023-03-24T10:54:34.707Z,8.77
2023-03-24T10:55:44.255Z,10.95
2023-03-24T10:57:04.166Z,10.37
2023-03-24T10:58:17.225Z,9.45
2023-03-24T10:59:29.750Z,6.65
2023-03-24T11:00:33.479Z,8.55
2023-03-24T11:01:37.109Z,8.07
2023-03-24T11:02:41.201Z,10.63
2023-03-24T11:03:46.492Z,8.23
2023-03-24T11:05:24.132Z,9.90
2023-03-24T11:06:28.235Z,12.18
2023-03-24T11:07:39.564Z,9.82
2023-03-24T11:08:43.491Z,6.53
2023-03-24T11:09:49.630Z,8.68
2023-03-24T11:10:53.943Z,10.15
2023-03-24T11:12:00.261Z,5.43
2023-03-24T11:13:05.750Z,3.85
2023-03-24T11:14:23.249Z,6.38
2023-03-24T11:15:38.170Z,5.40
2023-03-24T11:16:43.687Z,4.50
2023-03-24T11:17:48.534Z,4.97
2023-03-24T11:19:03.874Z,4.60
2023-03-24T11:20:20.134Z,5.80
2023-03-24T11:21:24.320Z,9.30
2023-03-24T11:22:28.044Z,7.38
2023-03-24T11:23:38.858Z,5.30
2023-03-24T11:24:42.598Z,5.90
2023-03-24T11:26:10.029Z,8.18
2023-03-24T11:27:15.999Z,6.55
2023-03-24T11:28:22.741Z,8.45
2023-03-24T11:29:28.599Z,8.82
2023-03-24T11:30:37.336Z,5.00
2023-03-24T11:31:41.348Z,6.28
2023-03-24T11:32:47.847Z,9.73
2023-03-24T11:34:02.474Z,5.85
2023-03-24T11:35:11.923Z,10.00
2023-03-24T11:36:36.704Z,8.75
2023-03-24T11:37:42.316Z,4.05
2023-03-24T11:38:46.655Z,10.30
2023-03-24T11:40:17.374Z,7.38
2023-03-24T11:41:22.307Z,6.95
2023-03-24T11:42:28.420Z,9.73
2023-03-24T11:43:32.680Z,6.85
2023-03-24T11:44:44.426Z,4.53
2023-03-24T11:45:57.742Z,5.78
2023-03-24T11:47:04.883Z,6.68
2023-03-24T11:48:41.694Z,7.43
2023-03-24T11:50:15.348Z,7.18
2023-03-24T11:51:33.452Z,7.72
2023-03-24T11:52:59.843Z,7.57
2023-03-24T11:54:05.798Z,6.32
2023-03-24T11:55:37.265Z,6.70
2023-03-24T11:56:47.420Z,8.23
2023-03-24T11:58:06.049Z,7.28
2023-03-24T11:59:40.559Z,7.10
2023-03-24T12:00:52.616Z,8.70
2023-03-24T12:02:06.167Z,5.57
2023-03-24T12:03:34.834Z,8.50
2023-03-24T12:05:00.314Z,5.05
2023-03-24T12:06:25.416Z,11.77
2023-03-24T12:07:51.745Z,6.00
2023-03-24T12:09:37.347Z,7.18
2023-03-24T12:10:56.762Z,5.20
2023-03-24T12:12:21.750Z,4.20
2023-03-24T12:13:32.813Z,6.20
2023-03-24T12:15:25.113Z,8.38
2023-03-24T12:16:54.029Z,8.40
2023-03-24T12:18:35.151Z,9.75
2023-03-24T12:20:00.630Z,6.88
2023-03-24T12:21:19.377Z,5.13
2023-03-24T12:22:33.970Z,8.18
2023-03-24T12:23:55.196Z,5.45
2023-03-24T12:25:04.766Z,5.57
2023-03-24T12:26:21.515Z,7.30
2023-03-24T12:27:37.739Z,5.18
2023-03-24T12:28:53.994Z,7.25
2023-03-24T12:30:07.269Z,5.78
2023-03-24T12:31:17.087Z,6.65
2023-03-24T12:33:59.098Z,4.82
2023-03-24T12:35:12.565Z,5.00
2023-03-24T12:36:32.585Z,4.50
2023-03-24T12:37:43.651Z,3.67
2023-03-24T12:39:09.514Z,8.65
2023-03-24T12:40:31.854Z,5.88
2023-03-24T12:41:53.854Z,6.03
2023-03-24T12:43:10.504Z,6.20
2023-03-24T12:44:29.254Z,8.30
2023-03-24T12:45:41.647Z,3.08
2023-03-24T12:47:16.322Z,6.75
2023-03-24T12:48:44.097Z,7.45
2023-03-24T12:49:59.251Z,5.20
2023-03-24T12:51:02.819Z,6.43
2023-03-24T12:52:27.316Z,4.88
2023-03-24T12:53:50.271Z,4.05
2023-03-24T12:55:05.449Z,6.03
2023-03-24T12:56:19.570Z,12.80
2023-03-24T12:57:26.170Z,6.55
2023-03-24T12:58:51.653Z,6.35
2023-03-24T13:00:01.508Z,5.40
2023-03-24T13:01:36.095Z,3.33
2023-03-24T13:02:43.479Z,6.95
2023-03-24T13:04:13.127Z,9.75
2023-03-24T13:05:20.009Z,7.97
2023-03-24T13:06:33.411Z,5.47
2023-03-24T13:07:39.875Z,4.32
2023-03-24T13:08:46.142Z,4.30
2023-03-24T13:09:56.368Z,4.55
2023-03-24T13:12:14.821Z,6.13
2023-03-24T13:13:23.129Z,6.57
2023-03-24T13:14:33.396Z,9.30
2023-03-24T13:15:43.165Z,7.13
2023-03-24T13:16:47.600Z,10.95
2023-03-24T13:18:13.354Z,5.90
2023-03-24T13:19:22.958Z,5.22
2023-03-24T13:20:35.746Z,5.35
2023-03-24T13:21:39.413Z,5.32
2023-03-24T13:22:43.149Z,6.50
2023-03-24T13:24:00.557Z,7.05
2023-03-24T13:25:05.212Z,7.60
2023-03-24T13:26:12.285Z,7.65
2023-03-24T13:27:23.425Z,6.10
2023-03-24T13:28:30.939Z,8.10
2023-03-24T13:30:12.835Z,7.28
2023-03-24T13:31:16.984Z,11.50
2023-03-24T13:32:24.612Z,7.95
2023-03-24T13:33:32.089Z,8.10
2023-03-24T13:35:15.049Z,8.73
2023-03-24T13:36:43.301Z,6.07
2023-03-24T13:37:54.368Z,9.85
2023-03-24T13:39:01.319Z,6.15
2023-03-24T13:40:12.877Z,9.77
2023-03-24T13:41:21.406Z,6.53
2023-03-24T13:42:47.107Z,13.52
2023-03-24T13:43:52.490Z,8.43
2023-03-24T13:44:56.171Z,7.72
2023-03-24T13:46:04.478Z,5.38
2023-03-24T13:47:20.232Z,5.50
2023-03-24T13:48:24.101Z,9.00
2023-03-24T13:49:27.810Z,5.40
2023-03-24T13:50:36.416Z,6.78
2023-03-24T13:51:44.712Z,10.80
2023-03-24T13:52:50.004Z,7.25
2023-03-24T13:53:55.706Z,7.50
2023-03-24T13:55:01.364Z,6.00
2023-03-24T13:56:06.850Z,7.25
2023-03-24T13:57:24.385Z,6.90
2023-03-24T13:58:29.639Z,7.03
2023-03-24T13:59:34.264Z,7.28
2023-03-24T14:01:07.748Z,6.60
2023-03-24T14:02:31.548Z,12.52
2023-03-24T14:03:44.266Z,5.50
2023-03-24T14:05:04.049Z,6.85
2023-03-24T14:06:09.667Z,8.27
2023-03-24T14:07:41.007Z,8.07
2023-03-24T14:08:54.067Z,8.90
2023-03-24T14:10:02.759Z,7.53
2023-03-24T14:11:06.907Z,4.13
2023-03-24T14:12:17.706Z,7.22
2023-03-24T14:13:21.987Z,5.53
2023-03-24T14:14:26.901Z,8.85
2023-03-24T14:15:33.752Z,9.85
2023-03-24T14:16:55.440Z,9.52
2023-03-24T14:18:25.654Z,6.75
2023-03-24T14:20:10.052Z,4.97
2023-03-24T14:21:13.590Z,9.85
2023-03-24T14:22:26.496Z,13.63
2023-03-24T14:23:36.405Z,5.38
2023-03-24T14:24:41.322Z,7.72
2023-03-24T14:25:46.776Z,5.82
2023-03-24T14:26:50.985Z,7.78
2023-03-24T14:27:57.101Z,7.43
2023-03-24T14:29:00.958Z,5.60
2023-03-24T14:30:25.767Z,6.40
2023-03-24T14:31:34.018Z,6.22
2023-03-24T14:33:01.121Z,9.25
2023-03-24T14:34:22.142Z,8.38
2023-03-24T14:35:37.950Z,6.70
2023-03-24T14:36:43.522Z,7.78
2023-03-24T14:37:57.394Z,10.10
2023-03-24T14:39:57.960Z,7.57
2023-03-24T14:41:02.018Z,8.10
2023-03-24T14:42:33.367Z,8.05
2023-03-24T14:43:42.530Z,8.13
2023-03-24T14:44:46.089Z,6.70
2023-03-24T14:45:57.945Z,10.02
2023-03-24T14:47:01.991Z,8.50
2023-03-24T14:48:06.199Z,5.95
2023-03-24T14:49:23.844Z,5.88
2023-03-24T14:50:27.751Z,9.20
2023-03-24T14:51:39.812Z,9.43
2023-03-24T14:52:46.404Z,6.68
2023-03-24T14:53:50.036Z,6.75
2023-03-24T14:54:55.745Z,7.70
2023-03-24T14:55:59.738Z,6.75
2023-03-24T14:57:03.621Z,6.30
2023-03-24T14:58:27.069Z,5.25
2023-03-24T14:59:53.436Z,5.40
2023-03-24T15:01:06.967Z,10.82
2023-03-24T15:02:35.141Z,7.60
2023-03-24T15:03:57.066Z,5.30
2023-03-24T15:05:19.654Z,8.77
2023-03-24T15:06:25.443Z,6.50
2023-03-24T15:07:29.546Z,7.10
2023-03-24T15:08:33.497Z,8.98
2023-03-24T15:09:39.105Z,8.52
2023-03-24T15:10:44.947Z,6.15
2023-03-24T15:11:48.812Z,4.72
2023-03-24T15:12:52.836Z,9.35
2023-03-24T15:13:57.998Z,6.20
2023-03-24T15:15:01.782Z,9.02
2023-03-24T15:16:12.687Z,10.10
2023-03-24T15:17:25.865Z,8.60
2023-03-24T15:18:29.457Z,8.50
2023-03-24T15:19:34.726Z,9.13
2023-03-24T15:20:38.759Z,8.02
2023-03-24T15:22:05.437Z,7.00
2023-03-24T15:23:09.466Z,8.65
2023-03-24T15:24:29.126Z,9.38
2023-03-24T15:25:33.068Z,9.27
2023-03-24T15:26:37.276Z,2.92
2023-03-24T15:27:41.366Z,8.43
2023-03-24T15:28:45.170Z,7.15
2023-03-24T15:29:54.668Z,3.03
2023-03-24T15:31:02.254Z,7.50
2023-03-24T15:32:06.492Z,9.40
2023-03-24T15:33:12.446Z,5.00
2023-03-24T15:34:40.937Z,5.80
2023-03-24T15:35:45.884Z,7.35
2023-03-24T15:36:54.953Z,9.77
2023-03-24T15:37:58.646Z,5.85